Saint Martins, Canada
Current Conditions -  °F | °C
As of 4:00 AM on Sunday 23 Nov 2014 (Local Time) from CYSJ Reporting Station
Overcast Overcast  
Wind Chill: 27°   Ceiling: 9400
Heat Index: 32°   Visibility: 15mi
Dew Point: 25°   Wind: 5mph
Humidity: 75%   Direction: 270°W
Pressure: 29.88"   Gusts: NA
Location:  45.35°N, 65.53°W
Report Text: CYSJ 230800Z 27004KT 15SM FEW068 OVC094 00/M04 A2988 RMK AC2AC6 SLP122
Loading
Personal Weather Stations






























Interactive Weather Map New forecast layout! Learn more

10-Day Weather Forecast

Advertisements
Track Severe Weather on mobile